NFNL METAR and TAF | Updated Today

NFNL METAR

Labasa Airport

Observation time: 5:31 hr. ago

NFNL 060300Z 34005KT 9999 -SHRA SCT025 BKN045 BKN100 29/23 Q1006

Need help? Read our tutorial on how to read METARs or read the parsed version below.

Labasa Airport (NFNL) METAR

  • Weather conditions on Mon, 06 Dec 2021 03:00:00 +0000 (5:31 hr. ago):
  • Present conditions: Light showers of rain
  • Clouds: Scattered at 762 meters; broken sky at 1372 meters; broken sky at 3048 meters
  • Visibility: Greater than 10 km
  • Wind: 340 degrees at 5 knots
  • Temperature: 29 celsius
  • Dew point: 23 celsius
  • Pressure: 1006 millibars
  • Remarks: None


Useful to know...

NFNL TAF

Labasa Airport

TAF not found.

Airports near NFNL

No airports found within 100nm radius.